sensor_id;sensor_type;location;lat;lon;timestamp;pressure;altitude;pressure_sealevel;temperature;humidity
44697;BME280;57264;47.480;19.354;2022-11-13T00:00:32;100595.44;;;8.82;85.94
44697;BME280;57264;47.480;19.354;2022-11-13T00:02:58;100591.75;;;8.83;86.41
44697;BME280;57264;47.480;19.354;2022-11-13T00:05:23;100591.00;;;9.35;86.04
44697;BME280;57264;47.480;19.354;2022-11-13T00:07:49;100593.22;;;9.58;85.63
44697;BME280;57264;47.480;19.354;2022-11-13T00:10:15;100584.63;;;9.62;85.06
44697;BME280;57264;47.480;19.354;2022-11-13T00:12:41;100578.66;;;9.77;85.47
44697;BME280;57264;47.480;19.354;2022-11-13T00:15:07;100580.78;;;9.91;84.65
44697;BME280;57264;47.480;19.354;2022-11-13T00:17:32;100579.16;;;9.98;84.95
44697;BME280;57264;47.480;19.354;2022-11-13T00:19:58;100578.56;;;10.21;84.01
44697;BME280;57264;47.480;19.354;2022-11-13T00:22:23;100585.38;;;10.33;83.80
44697;BME280;57264;47.480;19.354;2022-11-13T00:24:49;100574.59;;;10.33;83.61
44697;BME280;57264;47.480;19.354;2022-11-13T00:27:14;100584.00;;;10.29;83.33
44697;BME280;57264;47.480;19.354;2022-11-13T00:29:40;100582.97;;;10.22;83.38
44697;BME280;57264;47.480;19.354;2022-11-13T00:32:06;100587.09;;;10.08;83.00
44697;BME280;57264;47.480;19.354;2022-11-13T00:34:31;100579.66;;;10.02;82.66
44697;BME280;57264;47.480;19.354;2022-11-13T00:36:57;100585.66;;;9.61;82.93
44697;BME280;57264;47.480;19.354;2022-11-13T00:39:22;100577.16;;;9.30;83.14
44697;BME280;57264;47.480;19.354;2022-11-13T00:41:48;100582.19;;;9.07;84.44
44697;BME280;57264;47.480;19.354;2022-11-13T00:44:13;100582.41;;;8.96;82.21
44697;BME280;57264;47.480;19.354;2022-11-13T00:46:38;100594.66;;;8.72;82.44
44697;BME280;57264;47.480;19.354;2022-11-13T00:49:04;100579.50;;;8.43;81.79
44697;BME280;57264;47.480;19.354;2022-11-13T00:51:30;100576.31;;;8.30;82.84
44697;BME280;57264;47.480;19.354;2022-11-13T00:53:56;100580.06;;;8.09;83.14
44697;BME280;57264;47.480;19.354;2022-11-13T00:56:21;100584.09;;;7.96;82.54
44697;BME280;57264;47.480;19.354;2022-11-13T00:58:47;100579.59;;;7.86;83.32
44697;BME280;57264;47.480;19.354;2022-11-13T01:01:43;100573.13;;;7.79;83.13
44697;BME280;57264;47.480;19.354;2022-11-13T01:04:08;100575.84;;;7.60;82.29
44697;BME280;57264;47.480;19.354;2022-11-13T01:06:34;100573.59;;;7.55;82.69
44697;BME280;57264;47.480;19.354;2022-11-13T01:08:59;100570.44;;;7.79;86.68
44697;BME280;57264;47.480;19.354;2022-11-13T01:11:28;100570.09;;;7.92;85.06
44697;BME280;57264;47.480;19.354;2022-11-13T01:13:55;100569.75;;;7.77;85.96
44697;BME280;57264;47.480;19.354;2022-11-13T01:16:24;100559.97;;;7.66;84.41
44697;BME280;57264;47.480;19.354;2022-11-13T01:18:52;100564.75;;;7.82;85.30
44697;BME280;57264;47.480;19.354;2022-11-13T01:21:21;100560.53;;;7.70;84.70
44697;BME280;57264;47.480;19.354;2022-11-13T01:23:47;100563.56;;;7.57;82.67
44697;BME280;57264;47.480;19.354;2022-11-13T01:26:33;100556.06;;;7.51;85.37
44697;BME280;57264;47.480;19.354;2022-11-13T01:28:59;100558.75;;;7.41;84.52
44697;BME280;57264;47.480;19.354;2022-11-13T01:31:28;100558.09;;;7.29;85.49
44697;BME280;57264;47.480;19.354;2022-11-13T01:33:55;100558.94;;;7.30;83.58
44697;BME280;57264;47.480;19.354;2022-11-13T01:36:23;100557.97;;;7.21;84.93
44697;BME280;57264;47.480;19.354;2022-11-13T01:38:49;100554.72;;;7.27;85.55
44697;BME280;57264;47.480;19.354;2022-11-13T01:41:21;100554.41;;;7.30;84.95
44697;BME280;57264;47.480;19.354;2022-11-13T01:43:47;100544.22;;;7.24;84.13
44697;BME280;57264;47.480;19.354;2022-11-13T01:46:32;100542.69;;;7.12;84.44
44697;BME280;57264;47.480;19.354;2022-11-13T01:49:02;100533.78;;;7.12;85.32
44697;BME280;57264;47.480;19.354;2022-11-13T01:54:05;100539.63;;;6.87;85.02
44697;BME280;57264;47.480;19.354;2022-11-13T01:56:31;100529.00;;;6.86;85.77
44697;BME280;57264;47.480;19.354;2022-11-13T01:59:10;100515.28;;;6.89;85.90
44697;BME280;57264;47.480;19.354;2022-11-13T02:01:37;100526.88;;;6.70;84.01
44697;BME280;57264;47.480;19.354;2022-11-13T02:04:03;100517.84;;;6.61;84.69
44697;BME280;57264;47.480;19.354;2022-11-13T02:06:35;100517.69;;;6.53;82.83
44697;BME280;57264;47.480;19.354;2022-11-13T02:09:02;100515.13;;;6.52;84.08
44697;BME280;57264;47.480;19.354;2022-11-13T02:11:27;100518.22;;;6.37;85.54
44697;BME280;57264;47.480;19.354;2022-11-13T02:13:53;100519.34;;;6.35;85.31
44697;BME280;57264;47.480;19.354;2022-11-13T02:16:20;100516.25;;;6.39;83.85
44697;BME280;57264;47.480;19.354;2022-11-13T02:18:46;100534.72;;;6.23;84.20
44697;BME280;57264;47.480;19.354;2022-11-13T02:21:25;100522.41;;;6.20;86.73
44697;BME280;57264;47.480;19.354;2022-11-13T02:26:25;100524.81;;;6.14;84.25
44697;BME280;57264;47.480;19.354;2022-11-13T02:28:53;100518.56;;;6.03;86.00
44697;BME280;57264;47.480;19.354;2022-11-13T02:31:18;100524.94;;;6.12;85.79
44697;BME280;57264;47.480;19.354;2022-11-13T02:33:44;100530.34;;;6.22;85.14
44697;BME280;57264;47.480;19.354;2022-11-13T02:36:11;100523.81;;;6.05;84.98
44697;BME280;57264;47.480;19.354;2022-11-13T02:38:37;100521.78;;;5.97;85.82
44697;BME280;57264;47.480;19.354;2022-11-13T02:41:05;100516.72;;;6.04;87.04
44697;BME280;57264;47.480;19.354;2022-11-13T02:43:30;100523.31;;;5.90;85.29
44697;BME280;57264;47.480;19.354;2022-11-13T02:45:56;100530.56;;;5.99;84.88
44697;BME280;57264;47.480;19.354;2022-11-13T02:48:21;100522.59;;;5.88;85.19
44697;BME280;57264;47.480;19.354;2022-11-13T02:50:47;100533.00;;;5.81;85.22
44697;BME280;57264;47.480;19.354;2022-11-13T02:53:13;100514.88;;;5.95;84.53
44697;BME280;57264;47.480;19.354;2022-11-13T02:55:38;100521.53;;;6.00;86.34
44697;BME280;57264;47.480;19.354;2022-11-13T02:58:04;100517.25;;;6.38;87.24
44697;BME280;57264;47.480;19.354;2022-11-13T03:00:29;100517.69;;;6.82;90.36
44697;BME280;57264;47.480;19.354;2022-11-13T03:02:55;100509.59;;;7.68;91.03
44697;BME280;57264;47.480;19.354;2022-11-13T03:05:21;100516.69;;;8.25;86.72
44697;BME280;57264;47.480;19.354;2022-11-13T03:07:47;100502.75;;;8.57;89.92
44697;BME280;57264;47.480;19.354;2022-11-13T03:10:13;100507.84;;;8.78;88.01
44697;BME280;57264;47.480;19.354;2022-11-13T03:12:39;100508.47;;;9.16;86.85
44697;BME280;57264;47.480;19.354;2022-11-13T03:15:06;100514.75;;;9.43;86.78
44697;BME280;57264;47.480;19.354;2022-11-13T03:17:33;100510.38;;;9.42;85.52
44697;BME280;57264;47.480;19.354;2022-11-13T03:19:58;100503.38;;;9.31;86.74
44697;BME280;57264;47.480;19.354;2022-11-13T03:22:24;100511.63;;;9.29;85.72
44697;BME280;57264;47.480;19.354;2022-11-13T03:24:50;100514.97;;;8.87;84.08
44697;BME280;57264;47.480;19.354;2022-11-13T03:27:15;100513.03;;;7.98;83.18
44697;BME280;57264;47.480;19.354;2022-11-13T03:29:41;100516.13;;;7.56;83.16
44697;BME280;57264;47.480;19.354;2022-11-13T03:32:06;100517.78;;;7.29;82.96
44697;BME280;57264;47.480;19.354;2022-11-13T03:34:33;100517.25;;;6.97;82.83
44697;BME280;57264;47.480;19.354;2022-11-13T03:36:58;100520.38;;;6.82;84.27
44697;BME280;57264;47.480;19.354;2022-11-13T03:39:24;100508.78;;;6.92;87.00
44697;BME280;57264;47.480;19.354;2022-11-13T03:41:49;100517.81;;;7.10;86.76
44697;BME280;57264;47.480;19.354;2022-11-13T03:44:15;100516.25;;;7.07;86.47
44697;BME280;57264;47.480;19.354;2022-11-13T03:46:40;100510.31;;;7.04;85.69
44697;BME280;57264;47.480;19.354;2022-11-13T03:49:06;100505.06;;;7.12;87.04
44697;BME280;57264;47.480;19.354;2022-11-13T03:51:31;100504.63;;;7.36;86.73
44697;BME280;57264;47.480;19.354;2022-11-13T03:53:57;100503.94;;;7.24;85.17
44697;BME280;57264;47.480;19.354;2022-11-13T03:56:22;100501.13;;;7.16;85.37
44697;BME280;57264;47.480;19.354;2022-11-13T03:58:47;100511.16;;;7.14;85.63
44697;BME280;57264;47.480;19.354;2022-11-13T04:01:13;100515.69;;;7.04;85.56
44697;BME280;57264;47.480;19.354;2022-11-13T04:03:38;100502.69;;;6.99;85.93
44697;BME280;57264;47.480;19.354;2022-11-13T04:06:04;100507.63;;;7.04;85.65
44697;BME280;57264;47.480;19.354;2022-11-13T04:08:30;100504.28;;;6.92;85.93
44697;BME280;57264;47.480;19.354;2022-11-13T04:11:07;100505.66;;;7.06;86.88
44697;BME280;57264;47.480;19.354;2022-11-13T04:13:33;100503.47;;;7.39;88.80
44697;BME280;57264;47.480;19.354;2022-11-13T04:15:59;100503.81;;;7.16;85.70
44697;BME280;57264;47.480;19.354;2022-11-13T04:18:24;100501.84;;;7.08;87.13
44697;BME280;57264;47.480;19.354;2022-11-13T04:20:50;100501.28;;;6.95;86.03
44697;BME280;57264;47.480;19.354;2022-11-13T04:23:15;100499.16;;;6.89;84.35
44697;BME280;57264;47.480;19.354;2022-11-13T04:25:42;100504.28;;;6.82;85.15
44697;BME280;57264;47.480;19.354;2022-11-13T04:28:09;100514.03;;;6.83;86.05
44697;BME280;57264;47.480;19.354;2022-11-13T04:30:35;100507.53;;;6.76;87.63
44697;BME280;57264;47.480;19.354;2022-11-13T04:33:00;100504.41;;;7.00;89.40
44697;BME280;57264;47.480;19.354;2022-11-13T04:35:26;100505.72;;;7.43;88.58
44697;BME280;57264;47.480;19.354;2022-11-13T04:37:52;100508.03;;;7.28;86.26
44697;BME280;57264;47.480;19.354;2022-11-13T04:40:17;100496.19;;;7.12;85.26
44697;BME280;57264;47.480;19.354;2022-11-13T04:42:42;100495.59;;;7.08;86.01
44697;BME280;57264;47.480;19.354;2022-11-13T04:45:19;100496.31;;;7.10;87.38
44697;BME280;57264;47.480;19.354;2022-11-13T04:47:45;100499.34;;;6.87;86.29
44697;BME280;57264;47.480;19.354;2022-11-13T04:50:12;100495.06;;;6.85;84.56
44697;BME280;57264;47.480;19.354;2022-11-13T04:52:38;100490.56;;;6.66;83.95
44697;BME280;57264;47.480;19.354;2022-11-13T04:55:04;100495.94;;;6.66;86.46
44697;BME280;57264;47.480;19.354;2022-11-13T04:57:29;100495.09;;;6.65;86.83
44697;BME280;57264;47.480;19.354;2022-11-13T04:59:55;100491.97;;;6.60;87.70
44697;BME280;57264;47.480;19.354;2022-11-13T05:02:20;100505.28;;;6.81;86.79
44697;BME280;57264;47.480;19.354;2022-11-13T05:04:46;100503.28;;;6.44;84.96
44697;BME280;57264;47.480;19.354;2022-11-13T05:07:11;100494.25;;;6.65;87.30
44697;BME280;57264;47.480;19.354;2022-11-13T05:09:37;100499.63;;;6.65;85.05
44697;BME280;57264;47.480;19.354;2022-11-13T05:12:02;100499.03;;;6.61;85.95
44697;BME280;57264;47.480;19.354;2022-11-13T05:14:39;100501.66;;;6.13;84.36
44697;BME280;57264;47.480;19.354;2022-11-13T05:17:06;100504.91;;;6.06;85.84
44697;BME280;57264;47.480;19.354;2022-11-13T05:19:33;100502.78;;;6.00;84.45
44697;BME280;57264;47.480;19.354;2022-11-13T05:21:59;100503.94;;;5.86;83.69
44697;BME280;57264;47.480;19.354;2022-11-13T05:24:25;100502.47;;;5.73;84.23
44697;BME280;57264;47.480;19.354;2022-11-13T05:26:51;100502.34;;;5.74;83.28
44697;BME280;57264;47.480;19.354;2022-11-13T05:29:16;100499.19;;;5.59;84.27
44697;BME280;57264;47.480;19.354;2022-11-13T05:31:42;100507.66;;;5.34;83.86
44697;BME280;57264;47.480;19.354;2022-11-13T05:34:08;100505.84;;;5.34;85.37
44697;BME280;57264;47.480;19.354;2022-11-13T05:36:33;100495.63;;;5.49;87.91
44697;BME280;57264;47.480;19.354;2022-11-13T05:38:59;100493.75;;;5.80;86.99
44697;BME280;57264;47.480;19.354;2022-11-13T05:41:25;100493.16;;;5.67;84.47
44697;BME280;57264;47.480;19.354;2022-11-13T05:43:51;100494.53;;;5.61;84.57
44697;BME280;57264;47.480;19.354;2022-11-13T05:46:19;100494.41;;;5.32;82.82
44697;BME280;57264;47.480;19.354;2022-11-13T05:48:46;100483.56;;;5.34;84.23
44697;BME280;57264;47.480;19.354;2022-11-13T05:51:18;100487.03;;;5.55;86.14
44697;BME280;57264;47.480;19.354;2022-11-13T05:53:44;100489.44;;;5.58;84.21
44697;BME280;57264;47.480;19.354;2022-11-13T05:56:13;100482.94;;;5.51;81.98
44697;BME280;57264;47.480;19.354;2022-11-13T05:58:40;100483.47;;;5.45;82.13
44697;BME280;57264;47.480;19.354;2022-11-13T06:01:09;100486.38;;;5.63;84.12
44697;BME280;57264;47.480;19.354;2022-11-13T06:03:36;100488.75;;;5.56;82.54
44697;BME280;57264;47.480;19.354;2022-11-13T06:06:02;100483.81;;;5.61;82.39
44697;BME280;57264;47.480;19.354;2022-11-13T06:08:28;100483.94;;;5.60;83.07
44697;BME280;57264;47.480;19.354;2022-11-13T06:11:01;100487.63;;;5.59;83.42
44697;BME280;57264;47.480;19.354;2022-11-13T06:13:28;100492.56;;;5.63;83.71
44697;BME280;57264;47.480;19.354;2022-11-13T06:15:54;100489.94;;;5.73;82.63
44697;BME280;57264;47.480;19.354;2022-11-13T06:18:21;100497.41;;;5.70;82.39
44697;BME280;57264;47.480;19.354;2022-11-13T06:20:47;100494.78;;;5.89;83.71
44697;BME280;57264;47.480;19.354;2022-11-13T06:23:13;100493.59;;;6.03;81.79
44697;BME280;57264;47.480;19.354;2022-11-13T06:25:38;100491.63;;;6.05;81.01
44697;BME280;57264;47.480;19.354;2022-11-13T06:28:04;100487.41;;;6.22;82.51
44697;BME280;57264;47.480;19.354;2022-11-13T06:30:29;100490.13;;;6.41;82.76
44697;BME280;57264;47.480;19.354;2022-11-13T06:32:54;100486.59;;;6.41;81.48
44697;BME280;57264;47.480;19.354;2022-11-13T06:35:20;100484.22;;;6.57;81.55
44697;BME280;57264;47.480;19.354;2022-11-13T06:37:45;100482.38;;;6.67;82.30
44697;BME280;57264;47.480;19.354;2022-11-13T06:40:11;100483.00;;;7.65;88.20
44697;BME280;57264;47.480;19.354;2022-11-13T06:42:37;100491.56;;;7.79;82.96
44697;BME280;57264;47.480;19.354;2022-11-13T06:45:03;100492.13;;;7.55;82.71
44697;BME280;57264;47.480;19.354;2022-11-13T06:47:29;100497.63;;;7.53;82.24
44697;BME280;57264;47.480;19.354;2022-11-13T06:49:54;100492.38;;;7.61;80.83
44697;BME280;57264;47.480;19.354;2022-11-13T06:52:19;100514.16;;;7.58;81.62
44697;BME280;57264;47.480;19.354;2022-11-13T06:54:45;100513.13;;;7.12;83.09
44697;BME280;57264;47.480;19.354;2022-11-13T06:57:10;100508.94;;;6.80;82.97
44697;BME280;57264;47.480;19.354;2022-11-13T06:59:36;100508.56;;;7.42;83.06
44697;BME280;57264;47.480;19.354;2022-11-13T07:02:02;100504.25;;;7.96;84.23
44697;BME280;57264;47.480;19.354;2022-11-13T07:04:27;100505.22;;;8.50;81.17
44697;BME280;57264;47.480;19.354;2022-11-13T07:06:53;100508.44;;;8.54;80.87
44697;BME280;57264;47.480;19.354;2022-11-13T07:09:18;100511.06;;;8.64;80.94
44697;BME280;57264;47.480;19.354;2022-11-13T07:11:44;100502.38;;;8.52;80.50
44697;BME280;57264;47.480;19.354;2022-11-13T07:14:10;100501.06;;;8.74;82.53
44697;BME280;57264;47.480;19.354;2022-11-13T07:16:36;100506.53;;;9.00;80.67
44697;BME280;57264;47.480;19.354;2022-11-13T07:19:02;100516.63;;;9.24;80.53
44697;BME280;57264;47.480;19.354;2022-11-13T07:21:28;100507.22;;;9.28;80.13
44697;BME280;57264;47.480;19.354;2022-11-13T07:23:53;100515.09;;;8.78;80.98
44697;BME280;57264;47.480;19.354;2022-11-13T07:26:20;100511.97;;;9.08;79.30
44697;BME280;57264;47.480;19.354;2022-11-13T07:28:46;100511.38;;;9.23;79.83
44697;BME280;57264;47.480;19.354;2022-11-13T07:31:13;100509.91;;;9.28;79.85
44697;BME280;57264;47.480;19.354;2022-11-13T07:33:39;100516.00;;;9.57;81.34
44697;BME280;57264;47.480;19.354;2022-11-13T07:36:05;100510.88;;;10.14;80.86
44697;BME280;57264;47.480;19.354;2022-11-13T07:38:30;100505.47;;;10.14;80.21
44697;BME280;57264;47.480;19.354;2022-11-13T07:40:57;100507.28;;;9.97;80.17
44697;BME280;57264;47.480;19.354;2022-11-13T07:43:23;100513.38;;;9.39;80.26
44697;BME280;57264;47.480;19.354;2022-11-13T07:45:49;100509.81;;;9.64;79.10
44697;BME280;57264;47.480;19.354;2022-11-13T07:48:20;100519.28;;;9.42;79.33
44697;BME280;57264;47.480;19.354;2022-11-13T07:50:46;100517.72;;;9.31;80.18
44697;BME280;57264;47.480;19.354;2022-11-13T07:53:12;100517.31;;;9.79;79.38
44697;BME280;57264;47.480;19.354;2022-11-13T07:55:38;100514.97;;;9.84;78.96
44697;BME280;57264;47.480;19.354;2022-11-13T07:58:04;100519.09;;;9.96;78.94
44697;BME280;57264;47.480;19.354;2022-11-13T08:00:32;100520.56;;;9.90;79.77
44697;BME280;57264;47.480;19.354;2022-11-13T08:03:08;100524.34;;;9.71;80.44
44697;BME280;57264;47.480;19.354;2022-11-13T08:05:35;100514.34;;;9.90;80.39
44697;BME280;57264;47.480;19.354;2022-11-13T08:08:01;100512.81;;;9.96;79.55
44697;BME280;57264;47.480;19.354;2022-11-13T08:10:28;100516.06;;;9.99;79.66
44697;BME280;57264;47.480;19.354;2022-11-13T08:13:06;100512.06;;;10.11;79.64
44697;BME280;57264;47.480;19.354;2022-11-13T08:15:32;100507.44;;;10.38;78.67
44697;BME280;57264;47.480;19.354;2022-11-13T08:18:00;100510.69;;;10.66;78.82
44697;BME280;57264;47.480;19.354;2022-11-13T08:20:28;100514.59;;;10.80;78.07
44697;BME280;57264;47.480;19.354;2022-11-13T08:23:01;100505.69;;;10.96;78.31
44697;BME280;57264;47.480;19.354;2022-11-13T08:25:28;100511.25;;;10.86;79.41
44697;BME280;57264;47.480;19.354;2022-11-13T08:27:54;100508.84;;;10.83;79.11
44697;BME280;57264;47.480;19.354;2022-11-13T08:30:21;100511.81;;;10.31;78.97
44697;BME280;57264;47.480;19.354;2022-11-13T08:32:47;100515.56;;;10.38;79.14
44697;BME280;57264;47.480;19.354;2022-11-13T08:35:12;100514.91;;;10.44;79.23
44697;BME280;57264;47.480;19.354;2022-11-13T08:37:38;100515.97;;;11.01;78.17
44697;BME280;57264;47.480;19.354;2022-11-13T08:40:04;100515.47;;;11.05;78.35
44697;BME280;57264;47.480;19.354;2022-11-13T08:42:30;100514.94;;;11.10;77.56
44697;BME280;57264;47.480;19.354;2022-11-13T08:44:55;100517.31;;;10.80;78.26
44697;BME280;57264;47.480;19.354;2022-11-13T08:47:21;100512.75;;;10.81;78.77
44697;BME280;57264;47.480;19.354;2022-11-13T08:49:46;100523.56;;;10.97;79.01
44697;BME280;57264;47.480;19.354;2022-11-13T08:52:11;100521.53;;;10.91;79.12
44697;BME280;57264;47.480;19.354;2022-11-13T08:54:37;100514.94;;;11.02;78.05
44697;BME280;57264;47.480;19.354;2022-11-13T08:57:02;100513.94;;;11.11;78.04
44697;BME280;57264;47.480;19.354;2022-11-13T08:59:28;100511.91;;;11.46;77.59
44697;BME280;57264;47.480;19.354;2022-11-13T09:01:53;100519.63;;;11.57;77.67
44697;BME280;57264;47.480;19.354;2022-11-13T09:04:24;100523.13;;;11.82;77.30
44697;BME280;57264;47.480;19.354;2022-11-13T09:06:51;100512.41;;;12.05;75.91
44697;BME280;57264;47.480;19.354;2022-11-13T09:09:16;100512.81;;;11.86;77.29
44697;BME280;57264;47.480;19.354;2022-11-13T09:11:42;100515.50;;;11.86;77.44
44697;BME280;57264;47.480;19.354;2022-11-13T09:14:07;100519.59;;;11.73;78.17
44697;BME280;57264;47.480;19.354;2022-11-13T09:16:33;100516.22;;;11.71;78.21
44697;BME280;57264;47.480;19.354;2022-11-13T09:18:58;100507.19;;;11.95;77.52
44697;BME280;57264;47.480;19.354;2022-11-13T09:21:24;100503.19;;;12.23;76.71
44697;BME280;57264;47.480;19.354;2022-11-13T09:23:49;100506.56;;;12.25;77.58
44697;BME280;57264;47.480;19.354;2022-11-13T09:26:15;100509.75;;;12.60;76.31
44697;BME280;57264;47.480;19.354;2022-11-13T09:28:41;100511.13;;;12.55;77.19
44697;BME280;57264;47.480;19.354;2022-11-13T09:31:06;100514.34;;;12.82;76.19
44697;BME280;57264;47.480;19.354;2022-11-13T09:33:32;100512.63;;;12.27;78.20
44697;BME280;57264;47.480;19.354;2022-11-13T09:35:58;100508.78;;;12.52;77.75
44697;BME280;57264;47.480;19.354;2022-11-13T09:38:24;100498.84;;;12.68;76.05
44697;BME280;57264;47.480;19.354;2022-11-13T09:40:55;100495.84;;;12.86;76.26
44697;BME280;57264;47.480;19.354;2022-11-13T09:45:53;100485.03;;;13.01;76.69
44697;BME280;57264;47.480;19.354;2022-11-13T09:48:41;100478.06;;;12.83;76.63
44697;BME280;57264;47.480;19.354;2022-11-13T09:51:14;100474.13;;;13.09;76.19
44697;BME280;57264;47.480;19.354;2022-11-13T09:53:41;100479.59;;;13.24;74.36
44697;BME280;57264;47.480;19.354;2022-11-13T09:56:28;100481.44;;;13.61;74.67
44697;BME280;57264;47.480;19.354;2022-11-13T09:59:03;100488.91;;;13.29;75.51
44697;BME280;57264;47.480;19.354;2022-11-13T10:01:44;100480.69;;;13.38;75.42
44697;BME280;57264;47.480;19.354;2022-11-13T10:04:13;100478.53;;;13.25;75.93
44697;BME280;57264;47.480;19.354;2022-11-13T10:06:52;100469.94;;;13.21;75.79
44697;BME280;57264;47.480;19.354;2022-11-13T10:09:36;100470.28;;;13.41;75.56
44697;BME280;57264;47.480;19.354;2022-11-13T10:12:07;100473.66;;;13.58;74.84
44697;BME280;57264;47.480;19.354;2022-11-13T10:14:48;100464.50;;;13.59;74.44
44697;BME280;57264;47.480;19.354;2022-11-13T10:17:26;100462.88;;;13.35;75.30
44697;BME280;57264;47.480;19.354;2022-11-13T10:20:04;100453.16;;;13.41;73.54
44697;BME280;57264;47.480;19.354;2022-11-13T10:22:55;100446.59;;;13.50;72.99
44697;BME280;57264;47.480;19.354;2022-11-13T10:25:27;100442.47;;;13.84;72.33
44697;BME280;57264;47.480;19.354;2022-11-13T10:27:58;100436.94;;;13.92;72.25
44697;BME280;57264;47.480;19.354;2022-11-13T10:30:24;100441.81;;;13.96;71.58
44697;BME280;57264;47.480;19.354;2022-11-13T10:32:50;100429.47;;;13.94;72.18
44697;BME280;57264;47.480;19.354;2022-11-13T10:38:06;100429.38;;;13.72;71.11
44697;BME280;57264;47.480;19.354;2022-11-13T10:40:36;100419.81;;;14.28;71.10
44697;BME280;57264;47.480;19.354;2022-11-13T10:45:30;100410.94;;;14.41;68.98
44697;BME280;57264;47.480;19.354;2022-11-13T10:47:56;100411.25;;;14.09;69.33
44697;BME280;57264;47.480;19.354;2022-11-13T10:50:29;100412.78;;;14.18;69.45
44697;BME280;57264;47.480;19.354;2022-11-13T10:52:56;100413.91;;;14.61;68.89
44697;BME280;57264;47.480;19.354;2022-11-13T10:55:36;100397.53;;;14.39;70.16
44697;BME280;57264;47.480;19.354;2022-11-13T10:58:19;100401.03;;;14.11;69.89
44697;BME280;57264;47.480;19.354;2022-11-13T11:00:45;100392.38;;;14.44;68.23
44697;BME280;57264;47.480;19.354;2022-11-13T11:03:18;100388.47;;;14.53;68.48
44697;BME280;57264;47.480;19.354;2022-11-13T11:05:59;100396.00;;;14.51;69.39
44697;BME280;57264;47.480;19.354;2022-11-13T11:08:29;100396.38;;;14.27;70.19
44697;BME280;57264;47.480;19.354;2022-11-13T11:11:02;100397.34;;;14.41;70.65
44697;BME280;57264;47.480;19.354;2022-11-13T11:13:50;100389.16;;;14.34;70.35
44697;BME280;57264;47.480;19.354;2022-11-13T11:16:19;100393.44;;;14.65;69.66
44697;BME280;57264;47.480;19.354;2022-11-13T11:18:59;100385.19;;;14.80;68.15
44697;BME280;57264;47.480;19.354;2022-11-13T11:21:29;100385.16;;;14.73;66.05
44697;BME280;57264;47.480;19.354;2022-11-13T11:26:50;100385.38;;;14.78;65.22
44697;BME280;57264;47.480;19.354;2022-11-13T11:32:35;100380.28;;;14.25;65.62
44697;BME280;57264;47.480;19.354;2022-11-13T11:35:24;100374.59;;;14.42;65.45
44697;BME280;57264;47.480;19.354;2022-11-13T11:40:40;100363.06;;;14.18;66.14
44697;BME280;57264;47.480;19.354;2022-11-13T11:45:45;100365.66;;;14.26;66.58
44697;BME280;57264;47.480;19.354;2022-11-13T11:48:18;100359.84;;;14.29;66.58
44697;BME280;57264;47.480;19.354;2022-11-13T11:53:28;100353.09;;;14.25;65.69
44697;BME280;57264;47.480;19.354;2022-11-13T12:04:15;100342.03;;;14.27;65.66
44697;BME280;57264;47.480;19.354;2022-11-13T12:09:26;100347.47;;;14.05;67.10
44697;BME280;57264;47.480;19.354;2022-11-13T12:12:15;100344.22;;;14.16;66.66
44697;BME280;57264;47.480;19.354;2022-11-13T12:20:19;100331.75;;;14.22;67.60
44697;BME280;57264;47.480;19.354;2022-11-13T12:26:05;100320.13;;;14.07;66.68
44697;BME280;57264;47.480;19.354;2022-11-13T12:32:14;100320.41;;;13.97;67.55
44697;BME280;57264;47.480;19.354;2022-11-13T12:34:49;100314.16;;;13.75;68.66
44697;BME280;57264;47.480;19.354;2022-11-13T12:37:37;100307.03;;;13.74;67.62
44697;BME280;57264;47.480;19.354;2022-11-13T12:40:26;100307.16;;;13.87;65.24
44697;BME280;57264;47.480;19.354;2022-11-13T12:45:43;100308.25;;;14.14;63.01
44697;BME280;57264;47.480;19.354;2022-11-13T12:50:55;100292.22;;;13.76;63.57
44697;BME280;57264;47.480;19.354;2022-11-13T12:53:30;100295.78;;;13.77;64.66
44697;BME280;57264;47.480;19.354;2022-11-13T12:56:01;100290.47;;;13.69;64.20
44697;BME280;57264;47.480;19.354;2022-11-13T12:58:29;100290.06;;;13.72;64.10
44697;BME280;57264;47.480;19.354;2022-11-13T13:03:45;100278.31;;;13.65;63.35
44697;BME280;57264;47.480;19.354;2022-11-13T13:15:32;100268.13;;;13.52;63.71
44697;BME280;57264;47.480;19.354;2022-11-13T13:20:39;100268.94;;;13.31;64.15
44697;BME280;57264;47.480;19.354;2022-11-13T13:23:05;100266.22;;;13.31;64.06
44697;BME280;57264;47.480;19.354;2022-11-13T13:25:35;100259.84;;;13.24;64.25
44697;BME280;57264;47.480;19.354;2022-11-13T13:30:35;100266.88;;;13.33;64.40
44697;BME280;57264;47.480;19.354;2022-11-13T13:36:31;100266.00;;;13.47;64.03
44697;BME280;57264;47.480;19.354;2022-11-13T13:47:27;100247.88;;;13.18;65.94
44697;BME280;57264;47.480;19.354;2022-11-13T13:49:54;100256.13;;;12.80;66.49
44697;BME280;57264;47.480;19.354;2022-11-13T13:52:28;100258.66;;;12.96;66.26
44697;BME280;57264;47.480;19.354;2022-11-13T13:54:55;100262.97;;;12.91;66.14
44697;BME280;57264;47.480;19.354;2022-11-13T13:57:21;100261.28;;;13.05;65.98
44697;BME280;57264;47.480;19.354;2022-11-13T13:59:48;100264.19;;;12.88;67.05
44697;BME280;57264;47.480;19.354;2022-11-13T14:02:20;100255.47;;;12.93;67.18
44697;BME280;57264;47.480;19.354;2022-11-13T14:04:51;100255.94;;;12.96;67.04
44697;BME280;57264;47.480;19.354;2022-11-13T14:07:28;100248.66;;;12.67;67.97
44697;BME280;57264;47.480;19.354;2022-11-13T14:10:24;100246.03;;;12.59;69.09
44697;BME280;57264;47.480;19.354;2022-11-13T14:12:51;100249.50;;;12.53;68.99
44697;BME280;57264;47.480;19.354;2022-11-13T14:15:27;100253.97;;;12.46;69.28